AWA7773 LROP-LRIA
Flight info
| Callsign | AWA7773 |
|---|---|
| Flight time | 0h 41m |
| Altitude | 25000 |
| Route | DENAK T74 ISI |
| Aircraft | A20N/M-SDE2E3FGHIRWXY/LB1 |
Departure
| Time | 2026-04-22 18:39 |
|---|---|
| Airport | Bucharest Henri Coandă International Airport (LROP) |
Arrival
| Time | 2026-04-22 19:21 |
|---|---|
| Airport | Iaşi International Airport (LRIA) |
| Time | Latitude | Longitude | Altitude | Speed | Heading |
|---|---|---|---|---|---|
| 2026-04-22 17:58 | 44.57144 | 26.08112 | 320 ft | 0 kts | 173° |
| 2026-04-22 18:14 | 44.57146 | 26.08111 | 293 ft | 2 kts | 173° |
| 2026-04-22 18:14 | 44.57161 | 26.08109 | 319 ft | 2 kts | 173° |
| 2026-04-22 18:15 | 44.57176 | 26.08107 | 320 ft | 2 kts | 164° |
| 2026-04-22 18:15 | 44.57190 | 26.08098 | 319 ft | 2 kts | 132° |
| 2026-04-22 18:15 | 44.57198 | 26.08080 | 319 ft | 2 kts | 101° |
| 2026-04-22 18:15 | 44.57199 | 26.08073 | 318 ft | 0 kts | 91° |
| 2026-04-22 18:17 | 44.57199 | 26.08077 | 319 ft | 2 kts | 90° |
| 2026-04-22 18:18 | 44.57203 | 26.08134 | 320 ft | 10 kts | 82° |
| 2026-04-22 18:18 | 44.57211 | 26.08257 | 320 ft | 14 kts | 85° |
| 2026-04-22 18:18 | 44.57225 | 26.08350 | 320 ft | 11 kts | 78° |
| 2026-04-22 18:18 | 44.57232 | 26.08467 | 320 ft | 13 kts | 101° |
| 2026-04-22 18:19 | 44.57168 | 26.08511 | 320 ft | 13 kts | 176° |
| 2026-04-22 18:19 | 44.57076 | 26.08526 | 320 ft | 15 kts | 173° |
| 2026-04-22 18:19 | 44.56961 | 26.08542 | 320 ft | 18 kts | 175° |
| 2026-04-22 18:19 | 44.56880 | 26.08554 | 320 ft | 0 kts | 174° |
| 2026-04-22 18:20 | 44.56849 | 26.08559 | 320 ft | 10 kts | 174° |
| 2026-04-22 18:20 | 44.56767 | 26.08571 | 320 ft | 14 kts | 173° |
| 2026-04-22 18:20 | 44.56715 | 26.08580 | 320 ft | 0 kts | 173° |
| 2026-04-22 18:21 | 44.56714 | 26.08580 | 320 ft | 2 kts | 173° |
| 2026-04-22 18:21 | 44.56711 | 26.08580 | 320 ft | 0 kts | 173° |
| 2026-04-22 18:24 | 44.56698 | 26.08583 | 320 ft | 7 kts | 173° |
| 2026-04-22 18:24 | 44.56536 | 26.08615 | 321 ft | 15 kts | 180° |
| 2026-04-22 18:25 | 44.56422 | 26.08624 | 320 ft | 19 kts | 175° |
| 2026-04-22 18:25 | 44.56344 | 26.08635 | 320 ft | 4 kts | 173° |
| 2026-04-22 18:25 | 44.56308 | 26.08639 | 320 ft | 4 kts | 177° |
| 2026-04-22 18:26 | 44.56272 | 26.08605 | 320 ft | 7 kts | 249° |
| 2026-04-22 18:26 | 44.56257 | 26.08504 | 319 ft | 14 kts | 259° |
| 2026-04-22 18:26 | 44.56246 | 26.08352 | 320 ft | 18 kts | 264° |
| 2026-04-22 18:26 | 44.56234 | 26.08153 | 320 ft | 23 kts | 265° |
| 2026-04-22 18:27 | 44.56211 | 26.07907 | 320 ft | 26 kts | 264° |
| 2026-04-22 18:27 | 44.56203 | 26.07786 | 320 ft | 1 kts | 278° |
| 2026-04-22 18:27 | 44.56242 | 26.07747 | 320 ft | 10 kts | 345° |
| 2026-04-22 18:27 | 44.56267 | 26.07741 | 320 ft | 1 kts | 351° |
| 2026-04-22 18:28 | 44.56276 | 26.07739 | 320 ft | 0 kts | 352° |
| 2026-04-22 18:29 | 44.56305 | 26.07735 | 320 ft | 9 kts | 354° |
| 2026-04-22 18:30 | 44.56389 | 26.07723 | 319 ft | 15 kts | 354° |
| 2026-04-22 18:30 | 44.56558 | 26.07675 | 319 ft | 12 kts | 352° |
| 2026-04-22 18:30 | 44.56638 | 26.07663 | 320 ft | 12 kts | 356° |
| 2026-04-22 18:31 | 44.56700 | 26.07714 | 320 ft | 9 kts | 64° |
| 2026-04-22 18:31 | 44.56723 | 26.07818 | 319 ft | 13 kts | 75° |
| 2026-04-22 18:31 | 44.56729 | 26.07850 | 320 ft | 3 kts | 75° |
| 2026-04-22 18:31 | 44.56736 | 26.07891 | 318 ft | 0 kts | 76° |
| 2026-04-22 18:33 | 44.56739 | 26.07905 | 319 ft | 0 kts | 76° |
| 2026-04-22 18:34 | 44.56754 | 26.07964 | 319 ft | 16 kts | 62° |
| 2026-04-22 18:34 | 44.56767 | 26.07985 | 320 ft | 1 kts | 58° |
| 2026-04-22 18:34 | 44.56772 | 26.08008 | 320 ft | 5 kts | 75° |
| 2026-04-22 18:34 | 44.56784 | 26.08078 | 320 ft | 9 kts | 76° |
| 2026-04-22 18:35 | 44.56806 | 26.08179 | 320 ft | 12 kts | 67° |
| 2026-04-22 18:35 | 44.56849 | 26.08297 | 320 ft | 15 kts | 63° |
| 2026-04-22 18:35 | 44.56894 | 26.08440 | 320 ft | 17 kts | 77° |
| 2026-04-22 18:35 | 44.56957 | 26.08538 | 320 ft | 13 kts | 343° |
| 2026-04-22 18:36 | 44.57051 | 26.08526 | 320 ft | 15 kts | 352° |
| 2026-04-22 18:36 | 44.57161 | 26.08513 | 320 ft | 17 kts | 354° |
| 2026-04-22 18:36 | 44.57288 | 26.08495 | 319 ft | 19 kts | 354° |
| 2026-04-22 18:36 | 44.57420 | 26.08477 | 320 ft | 20 kts | 354° |
| 2026-04-22 18:37 | 44.57517 | 26.08461 | 320 ft | 7 kts | 354° |
| 2026-04-22 18:37 | 44.57518 | 26.08461 | 320 ft | 0 kts | 354° |
| 2026-04-22 18:38 | 44.57561 | 26.08454 | 319 ft | 19 kts | 354° |
| 2026-04-22 18:38 | 44.57666 | 26.08513 | 322 ft | 17 kts | 66° |
| 2026-04-22 18:39 | 44.57702 | 26.08898 | 320 ft | 81 kts | 85° |
| 2026-04-22 18:39 | 44.57792 | 26.10067 | 354 ft | 153 kts | 83° |
| 2026-04-22 18:39 | 44.57918 | 26.11527 | 1335 ft | 147 kts | 83° |
| 2026-04-22 18:39 | 44.58033 | 26.12934 | 2325 ft | 147 kts | 83° |
| 2026-04-22 18:40 | 44.58144 | 26.14367 | 3324 ft | 147 kts | 83° |
| 2026-04-22 18:40 | 44.58213 | 26.15823 | 4160 ft | 160 kts | 85° |
| 2026-04-22 18:40 | 44.58223 | 26.17560 | 4717 ft | 190 kts | 89° |
| 2026-04-22 18:40 | 44.58131 | 26.19438 | 5808 ft | 192 kts | 93° |
| 2026-04-22 18:41 | 44.57916 | 26.21267 | 7015 ft | 190 kts | 98° |
| 2026-04-22 18:41 | 44.57566 | 26.23082 | 7942 ft | 197 kts | 95° |
| 2026-04-22 18:41 | 44.57869 | 26.24987 | 8279 ft | 213 kts | 47° |
| 2026-04-22 18:41 | 44.59129 | 26.26148 | 8833 ft | 227 kts | 18° |
| 2026-04-22 18:42 | 44.60716 | 26.26695 | 9324 ft | 250 kts | 12° |
| 2026-04-22 18:42 | 44.62539 | 26.27398 | 9421 ft | 287 kts | 8° |
| 2026-04-22 18:42 | 44.64539 | 26.27499 | 10477 ft | 283 kts | 357° |
| 2026-04-22 18:42 | 44.66549 | 26.27556 | 11109 ft | 302 kts | 2° |
| 2026-04-22 18:43 | 44.68736 | 26.28016 | 11510 ft | 325 kts | 10° |
| 2026-04-22 18:43 | 44.70936 | 26.28854 | 12306 ft | 333 kts | 14° |
| 2026-04-22 18:43 | 44.73162 | 26.29896 | 13206 ft | 339 kts | 16° |
| 2026-04-22 18:43 | 44.75395 | 26.31019 | 14051 ft | 344 kts | 17° |
| 2026-04-22 18:44 | 44.77683 | 26.32189 | 14876 ft | 348 kts | 17° |
| 2026-04-22 18:44 | 44.79965 | 26.33352 | 15676 ft | 351 kts | 17° |
| 2026-04-22 18:44 | 44.82275 | 26.34522 | 16480 ft | 355 kts | 17° |
| 2026-04-22 18:44 | 44.84607 | 26.35698 | 17258 ft | 359 kts | 17° |
| 2026-04-22 18:45 | 44.86970 | 26.36888 | 18034 ft | 363 kts | 17° |
| 2026-04-22 18:45 | 44.89372 | 26.38096 | 18756 ft | 367 kts | 17° |
| 2026-04-22 18:45 | 44.91768 | 26.39302 | 19422 ft | 370 kts | 17° |
| 2026-04-22 18:45 | 44.94210 | 26.40531 | 20085 ft | 374 kts | 17° |
| 2026-04-22 18:46 | 44.96701 | 26.41787 | 20768 ft | 377 kts | 18° |
| 2026-04-22 18:46 | 44.99152 | 26.43016 | 21415 ft | 381 kts | 16° |
| 2026-04-22 18:46 | 45.01742 | 26.43964 | 22050 ft | 383 kts | 8° |
| 2026-04-22 18:46 | 45.04387 | 26.44609 | 22682 ft | 387 kts | 8° |
| 2026-04-22 18:47 | 45.07047 | 26.45272 | 23326 ft | 390 kts | 8° |
| 2026-04-22 18:47 | 45.09713 | 26.45945 | 23885 ft | 394 kts | 9° |
| 2026-04-22 18:47 | 45.12428 | 26.46634 | 24438 ft | 397 kts | 9° |
| 2026-04-22 18:47 | 45.15159 | 26.47326 | 24905 ft | 400 kts | 9° |
| 2026-04-22 18:48 | 45.17922 | 26.48026 | 25068 ft | 401 kts | 9° |
| 2026-04-22 18:48 | 45.20672 | 26.48723 | 25106 ft | 401 kts | 9° |
| 2026-04-22 18:48 | 45.23437 | 26.49424 | 25101 ft | 401 kts | 9° |
| 2026-04-22 18:48 | 45.26174 | 26.50118 | 25104 ft | 401 kts | 9° |
| 2026-04-22 18:49 | 45.28906 | 26.50812 | 25105 ft | 400 kts | 9° |
| 2026-04-22 18:49 | 45.31657 | 26.51511 | 25106 ft | 400 kts | 9° |
| 2026-04-22 18:49 | 45.34414 | 26.52212 | 25109 ft | 400 kts | 9° |
| 2026-04-22 18:49 | 45.37158 | 26.52911 | 25114 ft | 400 kts | 9° |
| 2026-04-22 18:50 | 45.39863 | 26.53601 | 25109 ft | 400 kts | 9° |
| 2026-04-22 18:50 | 45.42629 | 26.54307 | 25112 ft | 399 kts | 9° |
| 2026-04-22 18:50 | 45.45338 | 26.54998 | 25109 ft | 399 kts | 9° |
| 2026-04-22 18:50 | 45.48076 | 26.55698 | 25112 ft | 399 kts | 9° |
| 2026-04-22 18:51 | 45.50819 | 26.56401 | 25111 ft | 399 kts | 9° |
| 2026-04-22 18:51 | 45.53550 | 26.57101 | 25115 ft | 399 kts | 9° |
| 2026-04-22 18:51 | 45.56284 | 26.57801 | 25117 ft | 398 kts | 9° |
| 2026-04-22 18:51 | 45.58997 | 26.58498 | 25111 ft | 398 kts | 9° |
| 2026-04-22 18:52 | 45.61729 | 26.59200 | 25112 ft | 398 kts | 9° |
| 2026-04-22 18:52 | 45.64470 | 26.59904 | 25118 ft | 397 kts | 9° |
| 2026-04-22 18:52 | 45.67176 | 26.60601 | 25109 ft | 397 kts | 9° |
| 2026-04-22 18:52 | 45.69910 | 26.61305 | 25111 ft | 397 kts | 9° |
| 2026-04-22 18:53 | 45.72615 | 26.62003 | 25116 ft | 396 kts | 9° |
| 2026-04-22 18:53 | 45.75344 | 26.62708 | 25116 ft | 397 kts | 9° |
| 2026-04-22 18:53 | 45.78066 | 26.63411 | 25117 ft | 397 kts | 9° |
| 2026-04-22 18:53 | 45.80785 | 26.64114 | 25112 ft | 396 kts | 9° |
| 2026-04-22 18:54 | 45.83493 | 26.64815 | 25116 ft | 396 kts | 9° |
| 2026-04-22 18:54 | 45.86179 | 26.65512 | 25120 ft | 396 kts | 9° |
| 2026-04-22 18:54 | 45.88886 | 26.66214 | 25121 ft | 395 kts | 9° |
| 2026-04-22 18:54 | 45.91597 | 26.66918 | 25119 ft | 395 kts | 9° |
| 2026-04-22 18:55 | 45.94304 | 26.67622 | 25116 ft | 395 kts | 9° |
| 2026-04-22 18:55 | 45.97026 | 26.68330 | 25119 ft | 395 kts | 9° |
| 2026-04-22 18:55 | 45.99730 | 26.69034 | 25116 ft | 395 kts | 9° |
| 2026-04-22 18:55 | 46.02417 | 26.69735 | 25107 ft | 395 kts | 9° |
| 2026-04-22 18:56 | 46.05127 | 26.70443 | 25105 ft | 394 kts | 9° |
| 2026-04-22 18:56 | 46.07822 | 26.71148 | 25111 ft | 394 kts | 9° |
| 2026-04-22 18:56 | 46.10529 | 26.71857 | 25103 ft | 394 kts | 9° |
| 2026-04-22 18:56 | 46.13231 | 26.72566 | 25103 ft | 394 kts | 9° |
| 2026-04-22 18:57 | 46.15926 | 26.73273 | 25107 ft | 394 kts | 9° |
| 2026-04-22 18:57 | 46.18599 | 26.73975 | 25101 ft | 394 kts | 9° |
| 2026-04-22 18:57 | 46.21297 | 26.74684 | 25098 ft | 393 kts | 9° |
| 2026-04-22 18:57 | 46.24019 | 26.75400 | 25100 ft | 394 kts | 10° |
| 2026-04-22 18:58 | 46.26680 | 26.76101 | 25089 ft | 393 kts | 10° |
| 2026-04-22 18:58 | 46.29398 | 26.76818 | 25094 ft | 393 kts | 10° |
| 2026-04-22 18:58 | 46.32083 | 26.77526 | 25089 ft | 393 kts | 10° |
| 2026-04-22 18:58 | 46.34775 | 26.78235 | 25080 ft | 393 kts | 10° |
| 2026-04-22 18:59 | 46.37454 | 26.78941 | 25080 ft | 393 kts | 10° |
| 2026-04-22 18:59 | 46.40139 | 26.79650 | 25088 ft | 393 kts | 10° |
| 2026-04-22 18:59 | 46.42838 | 26.80363 | 25079 ft | 393 kts | 10° |
| 2026-04-22 18:59 | 46.45526 | 26.81074 | 25074 ft | 392 kts | 10° |
| 2026-04-22 19:00 | 46.47338 | 26.81556 | 25077 ft | 392 kts | 11° |
| 2026-04-22 19:00 | 46.50810 | 26.83058 | 24982 ft | 392 kts | 22° |
| 2026-04-22 19:00 | 46.53259 | 26.84835 | 24619 ft | 393 kts | 30° |
| 2026-04-22 19:00 | 46.55519 | 26.87070 | 24003 ft | 393 kts | 34° |
| 2026-04-22 19:01 | 46.57747 | 26.89378 | 23248 ft | 393 kts | 34° |
| 2026-04-22 19:01 | 46.59226 | 26.90903 | 22706 ft | 392 kts | 34° |
| 2026-04-22 19:01 | 46.61460 | 26.93203 | 21909 ft | 391 kts | 34° |
| 2026-04-22 19:01 | 46.63658 | 26.95467 | 21143 ft | 390 kts | 34° |
| 2026-04-22 19:02 | 46.65877 | 26.97755 | 20381 ft | 388 kts | 34° |
| 2026-04-22 19:02 | 46.68071 | 27.00021 | 19646 ft | 386 kts | 34° |
| 2026-04-22 19:02 | 46.70271 | 27.02295 | 18925 ft | 385 kts | 34° |
| 2026-04-22 19:02 | 46.72456 | 27.04556 | 18205 ft | 382 kts | 34° |
| 2026-04-22 19:03 | 46.74620 | 27.06799 | 17394 ft | 380 kts | 34° |
| 2026-04-22 19:03 | 46.76757 | 27.09018 | 16624 ft | 378 kts | 34° |
| 2026-04-22 19:03 | 46.78891 | 27.11236 | 15867 ft | 375 kts | 34° |
| 2026-04-22 19:03 | 46.81028 | 27.13460 | 15108 ft | 373 kts | 34° |
| 2026-04-22 19:04 | 46.83126 | 27.15646 | 14392 ft | 370 kts | 34° |
| 2026-04-22 19:04 | 46.85213 | 27.17821 | 13658 ft | 368 kts | 34° |
| 2026-04-22 19:04 | 46.87305 | 27.20006 | 12888 ft | 365 kts | 33° |
| 2026-04-22 19:04 | 46.89327 | 27.22119 | 12340 ft | 357 kts | 33° |
| 2026-04-22 19:05 | 46.91347 | 27.24229 | 11803 ft | 349 kts | 33° |
| 2026-04-22 19:05 | 46.93285 | 27.26255 | 11306 ft | 342 kts | 33° |
| 2026-04-22 19:05 | 46.95228 | 27.28286 | 10776 ft | 336 kts | 33° |
| 2026-04-22 19:05 | 46.97102 | 27.30247 | 10277 ft | 330 kts | 32° |
| 2026-04-22 19:06 | 46.98950 | 27.32182 | 9759 ft | 325 kts | 32° |
| 2026-04-22 19:06 | 47.00787 | 27.34105 | 9213 ft | 320 kts | 32° |
| 2026-04-22 19:06 | 47.02571 | 27.35975 | 8678 ft | 317 kts | 32° |
| 2026-04-22 19:07 | 47.06092 | 27.39674 | 8064 ft | 303 kts | 32° |
| 2026-04-22 19:07 | 47.07727 | 27.41670 | 8049 ft | 311 kts | 46° |
| 2026-04-22 19:07 | 47.08767 | 27.44465 | 8054 ft | 319 kts | 70° |
| 2026-04-22 19:07 | 47.09062 | 27.47735 | 8057 ft | 325 kts | 84° |
| 2026-04-22 19:08 | 47.09097 | 27.51055 | 8045 ft | 324 kts | 85° |
| 2026-04-22 19:08 | 47.09166 | 27.54321 | 7820 ft | 322 kts | 83° |
| 2026-04-22 19:08 | 47.09345 | 27.57580 | 7382 ft | 320 kts | 82° |
| 2026-04-22 19:08 | 47.09155 | 27.60882 | 6867 ft | 325 kts | 103° |
| 2026-04-22 19:09 | 47.08165 | 27.63863 | 6344 ft | 327 kts | 119° |
| 2026-04-22 19:09 | 47.07335 | 27.66871 | 5845 ft | 319 kts | 97° |
| 2026-04-22 19:09 | 47.07359 | 27.70075 | 5257 ft | 310 kts | 74° |
| 2026-04-22 19:09 | 47.08199 | 27.72917 | 4335 ft | 305 kts | 52° |
| 2026-04-22 19:10 | 47.09752 | 27.75027 | 3237 ft | 308 kts | 28° |
| 2026-04-22 19:10 | 47.11788 | 27.75947 | 2511 ft | 299 kts | 2° |
| 2026-04-22 19:10 | 47.13774 | 27.75471 | 2193 ft | 292 kts | 336° |
| 2026-04-22 19:10 | 47.15411 | 27.73750 | 2045 ft | 291 kts | 310° |
| 2026-04-22 19:11 | 47.16396 | 27.71163 | 2010 ft | 290 kts | 290° |
| 2026-04-22 19:11 | 47.17485 | 27.68701 | 2571 ft | 291 kts | 314° |
| 2026-04-22 19:11 | 47.19029 | 27.66872 | 3086 ft | 279 kts | 324° |
| 2026-04-22 19:11 | 47.20525 | 27.65354 | 3393 ft | 238 kts | 325° |
| 2026-04-22 19:12 | 47.21809 | 27.64073 | 3605 ft | 216 kts | 326° |
| 2026-04-22 19:12 | 47.23071 | 27.62888 | 3820 ft | 214 kts | 329° |
| 2026-04-22 19:12 | 47.24373 | 27.61827 | 4088 ft | 213 kts | 332° |
| 2026-04-22 19:12 | 47.25686 | 27.60874 | 4563 ft | 213 kts | 345° |
| 2026-04-22 19:13 | 47.27146 | 27.60848 | 5179 ft | 208 kts | 14° |
| 2026-04-22 19:13 | 47.28392 | 27.61954 | 5796 ft | 217 kts | 44° |
| 2026-04-22 19:13 | 47.29120 | 27.63950 | 6519 ft | 227 kts | 73° |
| 2026-04-22 19:13 | 47.29093 | 27.66300 | 7210 ft | 237 kts | 102° |
| 2026-04-22 19:14 | 47.28491 | 27.68587 | 7939 ft | 243 kts | 115° |
| 2026-04-22 19:14 | 47.27359 | 27.70455 | 8681 ft | 252 kts | 146° |
| 2026-04-22 19:14 | 47.25855 | 27.71330 | 9401 ft | 258 kts | 168° |
| 2026-04-22 19:14 | 47.24010 | 27.71740 | 10155 ft | 261 kts | 174° |
| 2026-04-22 19:15 | 47.22806 | 27.71923 | 10622 ft | 261 kts | 176° |
| 2026-04-22 19:15 | 47.20314 | 27.71602 | 10628 ft | 283 kts | 193° |
| 2026-04-22 19:15 | 47.18301 | 27.71251 | 9705 ft | 305 kts | 183° |
| 2026-04-22 19:15 | 47.16101 | 27.71358 | 8424 ft | 322 kts | 174° |
| 2026-04-22 19:16 | 47.13876 | 27.72010 | 7226 ft | 330 kts | 160° |
| 2026-04-22 19:16 | 47.11824 | 27.73527 | 6066 ft | 335 kts | 149° |
| 2026-04-22 19:16 | 47.09831 | 27.75276 | 5209 ft | 328 kts | 146° |
| 2026-04-22 19:16 | 47.07956 | 27.76942 | 5115 ft | 294 kts | 163° |
| 2026-04-22 19:17 | 47.06242 | 27.76697 | 5878 ft | 210 kts | 225° |
| 2026-04-22 19:17 | 47.05750 | 27.75224 | 6377 ft | 138 kts | 282° |
| 2026-04-22 19:17 | 47.06076 | 27.73872 | 5845 ft | 148 kts | 307° |
| 2026-04-22 19:17 | 47.06839 | 27.72802 | 5286 ft | 153 kts | 327° |
| 2026-04-22 19:18 | 47.07735 | 27.71853 | 4137 ft | 178 kts | 320° |
| 2026-04-22 19:18 | 47.08716 | 27.70633 | 3306 ft | 184 kts | 324° |
| 2026-04-22 19:18 | 47.09751 | 27.69588 | 2675 ft | 173 kts | 326° |
| 2026-04-22 19:18 | 47.10732 | 27.68687 | 2161 ft | 162 kts | 327° |
| 2026-04-22 19:19 | 47.11656 | 27.67844 | 1783 ft | 150 kts | 327° |
| 2026-04-22 19:19 | 47.12529 | 27.67046 | 1369 ft | 145 kts | 324° |
| 2026-04-22 19:19 | 47.13345 | 27.66279 | 1113 ft | 135 kts | 327° |
| 2026-04-22 19:19 | 47.14133 | 27.65599 | 924 ft | 131 kts | 328° |
| 2026-04-22 19:20 | 47.14946 | 27.64858 | 831 ft | 140 kts | 325° |
| 2026-04-22 19:20 | 47.15786 | 27.64095 | 657 ft | 145 kts | 328° |
| 2026-04-22 19:20 | 47.16641 | 27.63329 | 466 ft | 141 kts | 327° |
| 2026-04-22 19:20 | 47.17456 | 27.62602 | 353 ft | 128 kts | 327° |
| 2026-04-22 19:21 | 47.17858 | 27.62243 | 365 ft | 0 kts | 346° |
| 2026-04-22 19:21 | 47.17870 | 27.62217 | 367 ft | 1 kts | 276° |
| 2026-04-22 19:21 | 47.17854 | 27.62195 | 367 ft | 6 kts | 226° |
| 2026-04-22 19:21 | 47.17829 | 27.62133 | 366 ft | 8 kts | 241° |
| 2026-04-22 19:22 | 47.17800 | 27.62048 | 367 ft | 11 kts | 244° |
| 2026-04-22 19:22 | 47.17759 | 27.61944 | 371 ft | 12 kts | 223° |
| 2026-04-22 19:22 | 47.17701 | 27.61953 | 371 ft | 10 kts | 157° |
| 2026-04-22 19:22 | 47.17629 | 27.62005 | 371 ft | 13 kts | 151° |
| 2026-04-22 19:23 | 47.17536 | 27.62074 | 371 ft | 17 kts | 154° |
| 2026-04-22 19:23 | 47.17513 | 27.62077 | 371 ft | 3 kts | 196° |
| 2026-04-22 19:23 | 47.17490 | 27.62041 | 371 ft | 7 kts | 241° |
| 2026-04-22 19:23 | 47.17490 | 27.62002 | 371 ft | 0 kts | 276° |